Island Lake Airport

CYIV · 加拿大

罗盘
风向 的 风向 010° Island Lake Airport 12/30
风: 5 kt, 2 beaufort

2 kt

5 kt
改变
0 ft 1.000 2.000 3.000 4.000 5.000
Cloud Cloud
FEW 1.000
Cloud Cloud Cloud Cloud Cloud Cloud Cloud Cloud
OVC 3.500
METAR CYIV 210000Z AUTO 01005KT 9SM FEW010 OVC035 05/03 A2991 RMK SLP144

METAR Island Lake Airport - CYIV/YIV

该字段位于加拿大中。 该机场位于纬度53,85691和经度-94,65319。 该机场有一条跑道: 12/30. 本场的ICAO机场代码为CYIV。 该机场的IATA代码为YIV。 机场在Winnipeg FIR中。

该航空气象观测是针对Island Lake Airport在2024年5月20日 19:00, 当地时间进行的。

机场观察

风向为010°,速度为5 kt。

可见度为9 mi。

有几云在1.000 ft的高度 和 乌云密布在3.500 ft的高度。 破损或更高的上限为3.500 ft。

温度为5 °C,阵风为1 °C。 露点为3 °C,相对湿度为87%。 海平面上的气压为29,91 inHg (QNH)。

白天

今天,太阳从05:05升起,在21:24降落。 这适用于Island Lake Airport,世界夏令时可能有所不同。 当地时间与世界标准时间之间的时差为-5 小时。 夏令时目前正在进行中。

公司介绍

我们没有关于这个机场的公司信息。

体会

到Vliegles.nl去找飞行课程,跳伞和其他飞行体验。 浏览页面,了解Island Lake Airport附近所有可用的活动。 你也可以使用搜索功能来寻找你所在地附近的特定飞行课程、跳伞或其他飞行体验。

跑道

Id 标题 侧风 逆风 侧风 %
12/30 122°-302° 5 kt 2 kt 93 %

逆风成分最大的方向会被突出显示,并用于横风计算。 这并不一定意味着这个方向在使用。

乌云

1.000 ft FEW 几云
3.500 ft OVC 乌云密布

温度 & 天气

温度 5 °C
露点 3 °C
相对湿度 87%
风寒 1 °C
Kp-index 0 (0-9)

评论

SLP144海平面压力为29,96 inHg (29,96 inHg)

白天

日出
05:05 (9:50)
中午
13:15
日落
21:24

小工具

你想在你的网站上有一个关于Island Lake Airport的当前航空天气(METAR)的小部件吗?

显示HTML代码
报告变更